Time;durP1;ratioP1;P1;durP2;ratioP2;P2;SDS_P1;SDS_P2;PMS_P1;PMS_P2;Temp;Humidity;BMP_temperature;BMP_pressure;BME280_temperature;BME280_humidity;BME280_pressure;Samples;Min_cycle;Max_cycle;Signal;HPM_P1;HPM_P2
2021/09/02 00:02:00;;;;;;;10.73;4.15;;;;;;;;;;143744;589;46020;-54
2021/09/02 00:04:30;;;;;;;6.43;4.25;;;;;;;;;;143742;578;46020;-55
2021/09/02 00:06:57;;;;;;;4.60;4.05;;;;;;;;;;143741;635;46020;-55
2021/09/02 00:09:25;;;;;;;8.65;4.28;;;;;;;;;;143742;601;46020;-55
2021/09/02 00:11:52;;;;;;;6.68;4.12;;;;;;;;;;143745;621;46010;-55
2021/09/02 00:14:19;;;;;;;5.80;4.28;;;;;;;;;;143741;685;46021;-55
2021/09/02 00:16:48;;;;;;;9.32;4.65;;;;;;;;;;143742;622;46010;-55
2021/09/02 00:19:15;;;;;;;6.53;4.05;;;;;;;;;;143735;564;46020;-54
2021/09/02 00:21:42;;;;;;;7.57;4.15;;;;;;;;;;143745;571;46011;-54
2021/09/02 00:24:09;;;;;;;16.02;4.95;;;;;;;;;;143737;569;47020;-54
2021/09/02 00:26:37;;;;;;;8.75;4.53;;;;;;;;;;143741;590;46010;-54
2021/09/02 00:29:04;;;;;;;7.18;4.10;;;;;;;;;;143741;602;46021;-54
2021/09/02 00:31:30;;;;;;;11.90;4.68;;;;;;;;;;143746;571;46018;-54
2021/09/02 00:33:57;;;;;;;9.65;3.83;;;;;;;;;;143740;599;47020;-55
2021/09/02 00:36:25;;;;;;;5.78;4.32;;;;;;;;;;143742;591;46010;-53
2021/09/02 00:38:52;;;;;;;6.35;3.97;;;;;;;;;;143743;621;46020;-54
2021/09/02 00:41:19;;;;;;;8.88;4.20;;;;;;;;;;143747;590;46020;-54
2021/09/02 00:43:46;;;;;;;4.70;3.83;;;;;;;;;;143735;595;46021;-54
2021/09/02 00:46:18;;;;;;;8.90;4.57;;;;;;;;;;143742;672;46010;-55
2021/09/02 00:48:46;;;;;;;9.23;4.20;;;;;;;;;;143742;594;46020;-54
2021/09/02 00:51:15;;;;;;;5.68;4.40;;;;;;;;;;143743;602;46020;-54
2021/09/02 00:53:43;;;;;;;6.80;4.93;;;;;;;;;;143741;745;46020;-55
2021/09/02 00:56:11;;;;;;;8.18;4.37;;;;;;;;;;143741;593;46010;-54
2021/09/02 00:58:38;;;;;;;8.35;4.22;;;;;;;;;;143742;572;46021;-54
2021/09/02 01:01:05;;;;;;;8.63;4.50;;;;;;;;;;143744;584;46020;-54
2021/09/02 01:03:32;;;;;;;8.45;4.32;;;;;;;;;;143741;626;46022;-55
2021/09/02 01:05:58;;;;;;;9.40;4.95;;;;;;;;;;143743;618;46010;-54
2021/09/02 01:08:26;;;;;;;12.70;4.82;;;;;;;;;;143735;610;46029;-53
2021/09/02 01:10:53;;;;;;;5.80;4.30;;;;;;;;;;143743;587;46012;-54
2021/09/02 01:13:23;;;;;;;8.02;4.72;;;;;;;;;;143742;579;46021;-55
2021/09/02 01:15:51;;;;;;;12.18;5.20;;;;;;;;;;143742;595;46010;-54
2021/09/02 01:18:18;;;;;;;7.18;4.50;;;;;;;;;;143743;615;46020;-53
2021/09/02 01:20:45;;;;;;;7.28;4.70;;;;;;;;;;143745;614;46010;-54
2021/09/02 01:23:15;;;;;;;10.70;4.70;;;;;;;;;;143743;684;46020;-54
2021/09/02 01:25:42;;;;;;;9.93;4.82;;;;;;;;;;143742;577;46010;-53
2021/09/02 01:28:11;;;;;;;8.75;5.10;;;;;;;;;;143740;570;47021;-54
2021/09/02 01:30:39;;;;;;;8.27;4.60;;;;;;;;;;143747;581;46020;-55
2021/09/02 01:33:11;;;;;;;7.80;4.55;;;;;;;;;;143736;563;46020;-53
2021/09/02 01:35:38;;;;;;;6.75;4.78;;;;;;;;;;143743;572;46010;-54
2021/09/02 01:38:08;;;;;;;9.82;4.65;;;;;;;;;;143742;586;46021;-54
2021/09/02 01:40:40;;;;;;;9.00;4.70;;;;;;;;;;143744;564;46020;-55
2021/09/02 01:43:09;;;;;;;11.65;5.37;;;;;;;;;;143739;618;47010;-54
2021/09/02 01:45:37;;;;;;;13.60;4.93;;;;;;;;;;143743;570;46010;-54
2021/09/02 01:48:05;;;;;;;10.35;4.85;;;;;;;;;;143742;590;46022;-55
2021/09/02 01:50:36;;;;;;;8.38;5.22;;;;;;;;;;143745;554;46010;-54
2021/09/02 01:53:07;;;;;;;11.15;4.97;;;;;;;;;;143741;565;46020;-54
2021/09/02 01:55:35;;;;;;;7.00;4.87;;;;;;;;;;143742;582;46010;-54
2021/09/02 01:58:02;;;;;;;12.32;4.65;;;;;;;;;;143737;590;46020;-55
2021/09/02 02:00:29;;;;;;;6.87;4.50;;;;;;;;;;143745;713;46010;-53
2021/09/02 02:02:56;;;;;;;5.00;4.37;;;;;;;;;;143741;573;46020;-54
2021/09/02 02:05:23;;;;;;;6.37;4.70;;;;;;;;;;143742;570;46010;-54
2021/09/02 02:07:50;;;;;;;6.30;4.90;;;;;;;;;;143742;569;46021;-55
2021/09/02 02:10:22;;;;;;;6.37;4.82;;;;;;;;;;143744;576;46012;-55
2021/09/02 02:12:49;;;;;;;8.80;4.90;;;;;;;;;;143741;569;46021;-54
2021/09/02 02:15:16;;;;;;;21.55;5.85;;;;;;;;;;143743;637;46010;-55
2021/09/02 02:17:43;;;;;;;10.02;4.85;;;;;;;;;;143742;575;46020;-55
2021/09/02 02:20:11;;;;;;;6.18;4.85;;;;;;;;;;143743;572;46020;-54
2021/09/02 02:22:39;;;;;;;7.85;5.10;;;;;;;;;;143737;621;46020;-55
2021/09/02 02:25:08;;;;;;;9.45;5.37;;;;;;;;;;143743;569;46010;-55
2021/09/02 02:27:35;;;;;;;6.93;4.90;;;;;;;;;;143743;587;46020;-55
2021/09/02 02:30:04;;;;;;;7.80;5.45;;;;;;;;;;143746;585;46010;-54
2021/09/02 02:32:31;;;;;;;13.40;5.37;;;;;;;;;;143741;621;46020;-54
2021/09/02 02:34:58;;;;;;;7.07;5.37;;;;;;;;;;143743;565;46010;-54
2021/09/02 02:37:25;;;;;;;12.55;5.43;;;;;;;;;;143742;640;46021;-55
2021/09/02 02:39:52;;;;;;;6.90;5.05;;;;;;;;;;143743;592;46020;-55
2021/09/02 02:42:19;;;;;;;8.07;4.90;;;;;;;;;;143740;616;46021;-55
2021/09/02 02:44:46;;;;;;;9.65;5.65;;;;;;;;;;143744;583;46010;-54
2021/09/02 02:47:14;;;;;;;8.35;5.45;;;;;;;;;;143736;565;46020;-55
2021/09/02 02:49:41;;;;;;;15.70;6.25;;;;;;;;;;143743;619;46013;-55
2021/09/02 02:52:08;;;;;;;10.27;6.07;;;;;;;;;;143742;593;46020;-54
2021/09/02 02:54:36;;;;;;;9.32;5.75;;;;;;;;;;143743;569;46010;-54
2021/09/02 02:57:03;;;;;;;9.95;5.68;;;;;;;;;;143741;575;46020;-55
2021/09/02 02:59:30;;;;;;;8.13;5.32;;;;;;;;;;143743;642;46010;-55
2021/09/02 03:01:57;;;;;;;8.48;6.43;;;;;;;;;;143741;566;46022;-55
2021/09/02 03:04:24;;;;;;;8.52;5.37;;;;;;;;;;143741;603;46020;-54
2021/09/02 03:06:51;;;;;;;9.55;5.70;;;;;;;;;;143742;570;46021;-55
2021/09/02 03:09:18;;;;;;;8.02;6.10;;;;;;;;;;143741;621;46020;-55
2021/09/02 03:11:45;;;;;;;7.15;5.62;;;;;;;;;;143737;739;46020;-55
2021/09/02 03:14:12;;;;;;;9.38;6.03;;;;;;;;;;143743;603;46010;-54
2021/09/02 03:16:39;;;;;;;10.43;6.53;;;;;;;;;;143742;583;46020;-55
2021/09/02 03:19:06;;;;;;;10.23;6.20;;;;;;;;;;143738;618;46020;-54
2021/09/02 03:21:33;;;;;;;9.48;6.50;;;;;;;;;;143741;571;46020;-55
2021/09/02 03:24:00;;;;;;;9.55;5.90;;;;;;;;;;143743;584;46010;-55
2021/09/02 03:26:27;;;;;;;10.73;6.15;;;;;;;;;;143743;614;46020;-54
2021/09/02 03:28:54;;;;;;;9.80;5.82;;;;;;;;;;143746;565;46020;-55
2021/09/02 03:31:21;;;;;;;7.60;5.68;;;;;;;;;;143740;564;46020;-54
2021/09/02 03:33:48;;;;;;;10.57;6.00;;;;;;;;;;143742;626;46011;-54
2021/09/02 03:36:15;;;;;;;9.40;6.37;;;;;;;;;;143736;573;46021;-54
2021/09/02 03:38:42;;;;;;;7.80;5.60;;;;;;;;;;143744;585;46020;-55
2021/09/02 03:41:09;;;;;;;11.45;6.78;;;;;;;;;;143742;569;46021;-54
2021/09/02 03:43:36;;;;;;;8.23;6.28;;;;;;;;;;143741;567;46010;-55
2021/09/02 03:46:03;;;;;;;9.05;6.65;;;;;;;;;;143742;584;46020;-54
2021/09/02 03:48:31;;;;;;;11.77;6.85;;;;;;;;;;143745;666;46010;-55
2021/09/02 03:50:58;;;;;;;9.55;6.85;;;;;;;;;;143738;632;47021;-54
2021/09/02 03:53:25;;;;;;;19.00;7.32;;;;;;;;;;143741;578;46010;-55
2021/09/02 03:55:51;;;;;;;14.57;6.82;;;;;;;;;;143740;599;46020;-55
2021/09/02 03:58:19;;;;;;;12.00;7.20;;;;;;;;;;143742;575;46021;-55
2021/09/02 04:00:46;;;;;;;12.90;6.55;;;;;;;;;;143733;618;47022;-55
2021/09/02 04:03:12;;;;;;;9.90;7.12;;;;;;;;;;143739;588;46010;-55
2021/09/02 04:05:39;;;;;;;9.88;6.95;;;;;;;;;;143741;570;46021;-54
2021/09/02 04:08:06;;;;;;;12.93;6.60;;;;;;;;;;143743;614;46010;-54
2021/09/02 04:10:33;;;;;;;7.75;5.87;;;;;;;;;;143736;586;47020;-53
2021/09/02 04:13:01;;;;;;;9.93;6.40;;;;;;;;;;143739;585;46010;-54
2021/09/02 04:15:28;;;;;;;13.00;7.12;;;;;;;;;;143739;574;46020;-55
2021/09/02 04:17:56;;;;;;;10.32;6.53;;;;;;;;;;143742;617;46012;-54
2021/09/02 04:20:22;;;;;;;9.30;6.53;;;;;;;;;;143738;662;46021;-55
2021/09/02 04:22:49;;;;;;;9.90;6.25;;;;;;;;;;143740;640;46010;-55
2021/09/02 04:25:16;;;;;;;8.77;6.28;;;;;;;;;;143735;568;46020;-54
2021/09/02 04:27:43;;;;;;;8.80;6.07;;;;;;;;;;143742;591;46010;-55
2021/09/02 04:30:13;;;;;;;9.60;6.10;;;;;;;;;;143739;621;46022;-55
2021/09/02 04:32:43;;;;;;;10.25;6.15;;;;;;;;;;143741;846;46010;-54
2021/09/02 04:35:12;;;;;;;11.65;6.75;;;;;;;;;;143741;619;46021;-54
2021/09/02 04:37:41;;;;;;;10.13;6.40;;;;;;;;;;143742;599;46020;-54
2021/09/02 04:40:09;;;;;;;10.18;6.10;;;;;;;;;;143741;571;46020;-54
2021/09/02 04:42:36;;;;;;;10.25;6.57;;;;;;;;;;143740;578;46010;-55
2021/09/02 04:45:05;;;;;;;8.88;6.50;;;;;;;;;;143738;600;46020;-55
2021/09/02 04:47:33;;;;;;;8.95;5.93;;;;;;;;;;143742;581;46020;-55
2021/09/02 04:50:00;;;;;;;8.82;6.30;;;;;;;;;;143735;600;46020;-55
2021/09/02 04:52:27;;;;;;;7.82;5.70;;;;;;;;;;143740;617;46010;-55
2021/09/02 04:54:53;;;;;;;10.73;6.32;;;;;;;;;;143738;607;46020;-55
2021/09/02 04:57:21;;;;;;;16.25;6.53;;;;;;;;;;143742;585;46020;-55
2021/09/02 04:59:48;;;;;;;14.80;6.60;;;;;;;;;;143740;565;46023;-54
2021/09/02 05:02:16;;;;;;;8.45;5.97;;;;;;;;;;143740;635;46010;-54
2021/09/02 05:04:43;;;;;;;12.20;5.97;;;;;;;;;;143740;665;46021;-54
2021/09/02 05:07:10;;;;;;;8.15;5.82;;;;;;;;;;143743;585;46010;-54
2021/09/02 05:09:37;;;;;;;13.82;6.45;;;;;;;;;;143739;619;46020;-54
2021/09/02 05:12:05;;;;;;;10.73;6.70;;;;;;;;;;143740;566;46010;-54
2021/09/02 05:14:32;;;;;;;10.75;6.60;;;;;;;;;;143734;611;46020;-54
2021/09/02 05:16:59;;;;;;;9.00;6.50;;;;;;;;;;143742;563;46020;-54
2021/09/02 05:19:26;;;;;;;10.77;6.72;;;;;;;;;;143740;601;46022;-54
2021/09/02 05:21:53;;;;;;;11.07;6.12;;;;;;;;;;143740;589;46010;-54
2021/09/02 05:24:20;;;;;;;13.18;6.45;;;;;;;;;;143740;569;46020;-54
2021/09/02 05:26:47;;;;;;;12.90;5.87;;;;;;;;;;143744;609;46020;-54
2021/09/02 05:29:14;;;;;;;11.75;6.00;;;;;;;;;;143739;608;46020;-55
2021/09/02 05:31:41;;;;;;;9.23;6.50;;;;;;;;;;143741;625;46010;-55
2021/09/02 05:34:08;;;;;;;11.30;6.75;;;;;;;;;;143741;592;46020;-54
2021/09/02 05:36:35;;;;;;;8.25;6.50;;;;;;;;;;143741;621;46021;-54
2021/09/02 05:39:03;;;;;;;9.25;6.45;;;;;;;;;;143735;611;46020;-53
2021/09/02 05:41:30;;;;;;;10.40;6.53;;;;;;;;;;143740;611;46011;-55
2021/09/02 05:43:58;;;;;;;12.93;7.05;;;;;;;;;;143739;564;45021;-54
2021/09/02 05:46:24;;;;;;;9.25;6.53;;;;;;;;;;143745;607;46010;-55
2021/09/02 05:48:51;;;;;;;9.57;6.60;;;;;;;;;;143738;576;46021;-55
2021/09/02 05:51:18;;;;;;;9.40;6.40;;;;;;;;;;143740;599;46010;-54
2021/09/02 05:53:45;;;;;;;9.80;5.97;;;;;;;;;;143739;572;46020;-54
2021/09/02 05:56:12;;;;;;;10.07;6.18;;;;;;;;;;143743;564;46021;-54
2021/09/02 05:58:40;;;;;;;15.75;6.85;;;;;;;;;;143739;633;46023;-54
2021/09/02 06:01:07;;;;;;;8.73;6.65;;;;;;;;;;143738;577;46916;-54
2021/09/02 06:03:34;;;;;;;9.73;6.53;;;;;;;;;;143737;621;46020;-54
2021/09/02 06:06:01;;;;;;;9.40;6.80;;;;;;;;;;143744;573;46020;-53
2021/09/02 06:08:28;;;;;;;12.13;7.37;;;;;;;;;;143739;627;46020;-54
2021/09/02 06:10:55;;;;;;;11.85;6.43;;;;;;;;;;143741;564;46010;-54
2021/09/02 06:13:22;;;;;;;16.98;7.07;;;;;;;;;;143740;633;46021;-54
2021/09/02 06:15:49;;;;;;;14.20;6.20;;;;;;;;;;143744;579;46010;-53
2021/09/02 06:18:16;;;;;;;11.25;6.40;;;;;;;;;;143740;604;46020;-54
2021/09/02 06:20:43;;;;;;;7.87;5.82;;;;;;;;;;143740;612;46010;-55
2021/09/02 06:23:10;;;;;;;11.55;6.07;;;;;;;;;;143740;628;46020;-55
2021/09/02 06:25:37;;;;;;;9.93;5.65;;;;;;;;;;143738;575;46020;-54
2021/09/02 06:28:05;;;;;;;9.82;6.28;;;;;;;;;;143736;586;46020;-55
2021/09/02 06:30:32;;;;;;;11.20;6.60;;;;;;;;;;143740;623;46010;-55
2021/09/02 06:32:59;;;;;;;9.43;6.30;;;;;;;;;;143742;661;46020;-55
2021/09/02 06:35:26;;;;;;;9.10;5.93;;;;;;;;;;143738;605;46021;-55
2021/09/02 06:37:53;;;;;;;7.30;5.70;;;;;;;;;;143739;601;46020;-56
2021/09/02 06:40:20;;;;;;;9.63;5.80;;;;;;;;;;143740;600;46019;-56
2021/09/02 06:42:47;;;;;;;11.32;6.20;;;;;;;;;;143740;609;46021;-55
2021/09/02 06:45:15;;;;;;;9.55;5.50;;;;;;;;;;143743;733;46020;-55
2021/09/02 06:47:42;;;;;;;9.48;6.62;;;;;;;;;;143737;592;47021;-55
2021/09/02 06:50:11;;;;;;;8.43;5.65;;;;;;;;;;143740;589;46011;-55
2021/09/02 06:52:39;;;;;;;11.15;6.40;;;;;;;;;;143734;607;46020;-55
2021/09/02 06:55:07;;;;;;;9.05;6.07;;;;;;;;;;143744;569;46010;-54
2021/09/02 06:57:35;;;;;;;8.50;5.97;;;;;;;;;;143739;565;46020;-54
2021/09/02 07:00:04;;;;;;;10.63;6.45;;;;;;;;;;143740;622;46010;-54
2021/09/02 07:02:31;;;;;;;11.02;6.22;;;;;;;;;;143740;581;46020;-54
2021/09/02 07:04:58;;;;;;;10.68;6.45;;;;;;;;;;143741;603;46021;-53
2021/09/02 07:07:25;;;;;;;9.02;6.12;;;;;;;;;;143739;608;46022;-53
2021/09/02 07:09:52;;;;;;;14.68;6.53;;;;;;;;;;143740;564;46010;-54
2021/09/02 07:12:19;;;;;;;9.77;6.00;;;;;;;;;;143741;611;46021;-54
2021/09/02 07:14:46;;;;;;;7.43;5.75;;;;;;;;;;143742;569;46020;-53
2021/09/02 07:17:13;;;;;;;8.30;5.60;;;;;;;;;;143732;585;47021;-53
2021/09/02 07:19:40;;;;;;;8.07;5.75;;;;;;;;;;143740;583;46030;-53
2021/09/02 07:22:07;;;;;;;8.43;5.70;;;;;;;;;;143741;587;46020;-54
2021/09/02 07:24:34;;;;;;;8.48;5.50;;;;;;;;;;143744;610;46010;-53
2021/09/02 07:27:01;;;;;;;12.05;6.37;;;;;;;;;;143738;576;46021;-53
2021/09/02 07:29:28;;;;;;;12.77;6.10;;;;;;;;;;143740;592;47010;-53
2021/09/02 07:31:55;;;;;;;16.02;5.90;;;;;;;;;;143739;645;46020;-53
2021/09/02 07:34:22;;;;;;;11.30;6.10;;;;;;;;;;143745;595;46011;-54
2021/09/02 07:36:49;;;;;;;11.15;6.47;;;;;;;;;;143738;573;46020;-53
2021/09/02 07:39:16;;;;;;;8.00;5.87;;;;;;;;;;143741;572;46010;-53
2021/09/02 07:41:44;;;;;;;9.50;6.47;;;;;;;;;;143733;570;46021;-53
2021/09/02 07:44:11;;;;;;;13.02;5.90;;;;;;;;;;143743;592;46010;-53
2021/09/02 07:46:38;;;;;;;9.65;5.50;;;;;;;;;;143741;611;46020;-53
2021/09/02 07:49:05;;;;;;;7.47;5.22;;;;;;;;;;143739;564;46917;-53
2021/09/02 07:51:32;;;;;;;7.55;5.75;;;;;;;;;;143739;589;46020;-53
2021/09/02 07:53:58;;;;;;;10.98;5.95;;;;;;;;;;143742;742;46020;-53
2021/09/02 07:56:25;;;;;;;8.60;5.82;;;;;;;;;;143739;569;46033;-53
2021/09/02 07:58:52;;;;;;;8.27;5.80;;;;;;;;;;143741;710;46010;-53
2021/09/02 08:01:22;;;;;;;6.28;5.55;;;;;;;;;;143739;595;46020;-53
2021/09/02 08:03:50;;;;;;;11.60;6.07;;;;;;;;;;143741;573;46021;-53
2021/09/02 08:06:17;;;;;;;8.90;5.75;;;;;;;;;;143736;621;46020;-53
2021/09/02 08:08:44;;;;;;;6.95;5.30;;;;;;;;;;143741;576;46010;-53
2021/09/02 08:11:11;;;;;;;12.10;5.80;;;;;;;;;;143740;666;46021;-53
2021/09/02 08:13:38;;;;;;;12.32;5.90;;;;;;;;;;143743;643;46020;-53
2021/09/02 08:16:06;;;;;;;9.63;6.40;;;;;;;;;;143736;634;48022;-53
2021/09/02 08:18:33;;;;;;;10.15;4.97;;;;;;;;;;143740;579;46021;-53
2021/09/02 08:21:00;;;;;;;8.57;5.45;;;;;;;;;;143740;570;46034;-53
2021/09/02 08:23:27;;;;;;;7.03;5.20;;;;;;;;;;143743;569;46020;-53
2021/09/02 08:25:55;;;;;;;9.07;5.50;;;;;;;;;;143739;593;46021;-53
2021/09/02 08:28:22;;;;;;;10.90;5.00;;;;;;;;;;143740;610;47010;-53
2021/09/02 08:30:49;;;;;;;7.22;5.25;;;;;;;;;;143733;606;46020;-54
2021/09/02 08:33:16;;;;;;;7.40;5.70;;;;;;;;;;143742;591;46021;-54
2021/09/02 08:35:43;;;;;;;11.77;5.72;;;;;;;;;;143740;589;46020;-54
2021/09/02 08:38:10;;;;;;;8.63;5.25;;;;;;;;;;143741;594;46010;-54
2021/09/02 08:40:40;;;;;;;10.02;5.07;;;;;;;;;;143739;649;46021;-54
2021/09/02 08:43:07;;;;;;;10.30;5.45;;;;;;;;;;143741;596;46020;-54
2021/09/02 08:45:34;;;;;;;6.87;5.40;;;;;;;;;;143741;605;46020;-53
2021/09/02 08:48:02;;;;;;;7.75;5.68;;;;;;;;;;143741;583;46011;-54
2021/09/02 08:50:32;;;;;;;6.82;5.30;;;;;;;;;;143740;671;46020;-54
2021/09/02 08:53:01;;;;;;;7.28;5.37;;;;;;;;;;143741;613;46020;-53
2021/09/02 08:55:28;;;;;;;8.75;5.68;;;;;;;;;;143734;622;47021;-54
2021/09/02 08:57:56;;;;;;;8.23;5.70;;;;;;;;;;143738;695;46010;-54
2021/09/02 09:00:25;;;;;;;7.62;5.35;;;;;;;;;;143740;738;46020;-53
2021/09/02 09:03:05;;;;;;;10.15;5.47;;;;;;;;;;143737;564;48011;-54
2021/09/02 09:05:36;;;;;;;7.80;5.12;;;;;;;;;;143740;616;46020;-54
2021/09/02 09:08:12;;;;;;;9.38;5.43;;;;;;;;;;143739;571;46010;-53
2021/09/02 09:10:40;;;;;;;7.32;5.55;;;;;;;;;;143739;564;46021;-54
2021/09/02 09:13:11;;;;;;;6.40;5.25;;;;;;;;;;143745;581;46010;-54
2021/09/02 09:15:45;;;;;;;7.55;5.22;;;;;;;;;;143739;644;46020;-54
2021/09/02 09:18:20;;;;;;;14.52;5.80;;;;;;;;;;143740;593;47010;-54
2021/09/02 09:21:12;;;;;;;6.37;5.37;;;;;;;;;;143735;566;46020;-54
2021/09/02 09:24:02;;;;;;;9.98;5.50;;;;;;;;;;143741;614;46020;-53
2021/09/02 09:26:31;;;;;;;8.55;5.45;;;;;;;;;;143734;632;47024;-53
2021/09/02 09:29:01;;;;;;;8.18;5.35;;;;;;;;;;143742;580;47010;-54
2021/09/02 09:31:30;;;;;;;8.20;5.40;;;;;;;;;;143738;622;46020;-54
2021/09/02 09:33:58;;;;;;;9.35;5.47;;;;;;;;;;143742;565;46010;-54
2021/09/02 09:36:29;;;;;;;9.13;5.10;;;;;;;;;;143739;586;46020;-54
2021/09/02 09:39:04;;;;;;;6.45;5.25;;;;;;;;;;143738;608;46917;-54
2021/09/02 09:41:45;;;;;;;11.80;5.75;;;;;;;;;;143741;587;46010;-53
2021/09/02 09:44:29;;;;;;;11.65;5.07;;;;;;;;;;143741;565;46012;-54
2021/09/02 09:47:14;;;;;;;7.00;5.12;;;;;;;;;;143733;615;46022;-54
2021/09/02 09:50:09;;;;;;;7.68;5.40;;;;;;;;;;143741;581;46010;-54
2021/09/02 09:52:41;;;;;;;6.35;5.15;;;;;;;;;;143742;585;46022;-54
2021/09/02 09:55:18;;;;;;;10.05;5.35;;;;;;;;;;143742;588;47010;-54
2021/09/02 09:57:46;;;;;;;6.00;4.90;;;;;;;;;;143738;586;46020;-54
2021/09/02 10:00:18;;;;;;;9.57;5.40;;;;;;;;;;143737;585;48022;-54
2021/09/02 10:02:47;;;;;;;13.93;5.15;;;;;;;;;;143738;599;46021;-54
2021/09/02 10:05:16;;;;;;;9.57;4.93;;;;;;;;;;143741;589;46020;-54
2021/09/02 10:07:47;;;;;;;6.53;5.15;;;;;;;;;;143739;569;47020;-55
2021/09/02 10:10:16;;;;;;;7.05;5.28;;;;;;;;;;143739;567;47010;-55
2021/09/02 10:12:45;;;;;;;6.43;4.85;;;;;;;;;;143736;607;46020;-53
2021/09/02 10:15:14;;;;;;;6.57;5.10;;;;;;;;;;143743;586;46010;-53
2021/09/02 10:17:42;;;;;;;9.57;4.93;;;;;;;;;;143740;616;46021;-53
2021/09/02 10:20:24;;;;;;;9.15;5.00;;;;;;;;;;143741;575;46010;-54
2021/09/02 10:22:56;;;;;;;9.80;5.18;;;;;;;;;;143741;577;46020;-54
2021/09/02 10:25:38;;;;;;;9.52;5.10;;;;;;;;;;143743;565;46021;-55
2021/09/02 10:28:10;;;;;;;7.03;4.78;;;;;;;;;;143740;575;46020;-54
2021/09/02 10:31:01;;;;;;;13.05;5.00;;;;;;;;;;143742;583;46011;-55
2021/09/02 10:33:56;;;;;;;10.60;5.10;;;;;;;;;;143741;589;46023;-56
2021/09/02 10:36:43;;;;;;;7.37;5.30;;;;;;;;;;143739;584;49010;-55
2021/09/02 10:39:10;;;;;;;8.25;5.20;;;;;;;;;;143734;578;49022;-54
2021/09/02 10:41:47;;;;;;;9.25;4.80;;;;;;;;;;143740;565;47010;-55
2021/09/02 10:44:16;;;;;;;9.65;5.20;;;;;;;;;;143740;569;45913;-54
2021/09/02 10:46:47;;;;;;;6.95;5.12;;;;;;;;;;143744;565;46021;-55
2021/09/02 10:49:40;;;;;;;8.40;5.10;;;;;;;;;;143740;590;46020;-55
2021/09/02 10:52:27;;;;;;;16.77;5.00;;;;;;;;;;143742;602;46010;-54
2021/09/02 10:54:54;;;;;;;7.35;5.18;;;;;;;;;;143739;572;46021;-55
2021/09/02 10:57:36;;;;;;;7.65;5.03;;;;;;;;;;143742;601;46020;-54
2021/09/02 11:00:03;;;;;;;10.60;5.55;;;;;;;;;;143737;601;47020;-54
2021/09/02 11:02:40;;;;;;;11.70;4.90;;;;;;;;;;143738;618;47919;-55
2021/09/02 11:05:09;;;;;;;9.57;4.85;;;;;;;;;;143737;599;46012;-55
2021/09/02 11:07:43;;;;;;;8.95;4.82;;;;;;;;;;143742;654;47020;-55
2021/09/02 11:10:28;;;;;;;11.95;4.93;;;;;;;;;;143738;605;46041;-56
2021/09/02 11:13:05;;;;;;;8.15;5.07;;;;;;;;;;143741;571;46010;-54
2021/09/02 11:15:35;;;;;;;10.18;4.78;;;;;;;;;;143739;564;46020;-55
2021/09/02 11:18:05;;;;;;;9.65;4.97;;;;;;;;;;143745;589;45021;-55
2021/09/02 11:20:35;;;;;;;7.47;5.43;;;;;;;;;;143740;598;47020;-56
2021/09/02 11:23:16;;;;;;;7.25;5.15;;;;;;;;;;143741;582;46011;-55
2021/09/02 11:25:46;;;;;;;9.93;5.10;;;;;;;;;;143738;583;46018;-55
2021/09/02 11:28:15;;;;;;;7.25;4.75;;;;;;;;;;143744;639;46020;-55
2021/09/02 11:30:42;;;;;;;7.30;5.18;;;;;;;;;;143736;593;47021;-55
2021/09/02 11:33:09;;;;;;;8.30;4.93;;;;;;;;;;143739;574;46919;-54
2021/09/02 11:35:37;;;;;;;8.38;5.05;;;;;;;;;;143741;596;46020;-54
2021/09/02 11:38:04;;;;;;;14.55;5.53;;;;;;;;;;143743;570;46020;-55
2021/09/02 11:40:35;;;;;;;7.75;4.85;;;;;;;;;;143739;575;46023;-55
2021/09/02 11:43:02;;;;;;;8.18;5.18;;;;;;;;;;143742;569;46010;-54
2021/09/02 11:45:34;;;;;;;6.47;4.90;;;;;;;;;;143740;634;46020;-54
2021/09/02 11:48:05;;;;;;;11.60;5.10;;;;;;;;;;143742;564;46020;-55
2021/09/02 11:50:34;;;;;;;7.68;5.00;;;;;;;;;;143741;602;46020;-53
2021/09/02 11:53:01;;;;;;;8.50;5.07;;;;;;;;;;143742;576;46011;-52
2021/09/02 11:55:31;;;;;;;7.95;5.12;;;;;;;;;;143734;565;46021;-54
2021/09/02 11:58:06;;;;;;;11.38;4.90;;;;;;;;;;143743;585;46010;-53
2021/09/02 12:00:35;;;;;;;9.38;5.25;;;;;;;;;;143741;587;46021;-55
2021/09/02 12:03:04;;;;;;;13.68;5.55;;;;;;;;;;143742;615;46010;-55
2021/09/02 12:05:38;;;;;;;8.10;4.95;;;;;;;;;;143742;591;46020;-54
2021/09/02 12:08:12;;;;;;;11.23;5.05;;;;;;;;;;143743;596;46020;-54
2021/09/02 12:10:44;;;;;;;11.10;5.35;;;;;;;;;;143741;570;46023;-54
2021/09/02 12:13:36;;;;;;;11.95;4.82;;;;;;;;;;143743;603;46010;-53
2021/09/02 12:16:11;;;;;;;6.53;4.93;;;;;;;;;;143739;566;46022;-54
2021/09/02 12:18:45;;;;;;;6.93;5.00;;;;;;;;;;143745;596;46010;-54
2021/09/02 12:21:24;;;;;;;6.12;4.87;;;;;;;;;;143735;601;46022;-53
2021/09/02 12:23:54;;;;;;;6.12;4.47;;;;;;;;;;143743;610;46010;-55
2021/09/02 12:26:25;;;;;;;8.45;5.10;;;;;;;;;;143742;577;46021;-54
2021/09/02 12:28:55;;;;;;;8.15;5.55;;;;;;;;;;143745;598;46010;-55
2021/09/02 12:31:28;;;;;;;8.95;4.97;;;;;;;;;;143740;618;46022;-55
2021/09/02 12:34:06;;;;;;;6.77;5.23;;;;;;;;;;143741;619;47010;-55
2021/09/02 12:36:40;;;;;;;13.52;5.22;;;;;;;;;;143741;602;46020;-55
2021/09/02 12:39:28;;;;;;;8.45;4.72;;;;;;;;;;143744;617;46021;-55
2021/09/02 12:42:04;;;;;;;9.38;5.22;;;;;;;;;;143742;597;46020;-56
2021/09/02 12:44:39;;;;;;;18.42;5.30;;;;;;;;;;143742;592;46010;-55
2021/09/02 12:47:12;;;;;;;6.87;5.28;;;;;;;;;;143735;569;46021;-54
2021/09/02 12:49:45;;;;;;;9.50;5.10;;;;;;;;;;143745;661;46020;-55
2021/09/02 12:52:18;;;;;;;8.37;5.53;;;;;;;;;;143737;587;49020;-54
2021/09/02 12:55:08;;;;;;;9.02;5.37;;;;;;;;;;143743;589;46010;-55
2021/09/02 12:57:49;;;;;;;6.37;4.85;;;;;;;;;;143743;565;46020;-55
2021/09/02 13:00:33;;;;;;;13.13;5.57;;;;;;;;;;143746;564;46021;-55
2021/09/02 13:03:07;;;;;;;9.20;5.30;;;;;;;;;;143743;573;46020;-54
2021/09/02 13:05:35;;;;;;;9.50;5.07;;;;;;;;;;143743;622;46010;-55
2021/09/02 13:08:07;;;;;;;10.93;4.97;;;;;;;;;;143741;571;46020;-55
2021/09/02 13:10:38;;;;;;;6.40;4.50;;;;;;;;;;143743;564;46020;-54
2021/09/02 13:13:07;;;;;;;10.95;5.07;;;;;;;;;;143734;631;46029;-54
2021/09/02 13:15:34;;;;;;;7.72;4.87;;;;;;;;;;143742;644;46010;-55
2021/09/02 13:18:01;;;;;;;7.15;5.05;;;;;;;;;;143743;576;46020;-55
2021/09/02 13:20:28;;;;;;;9.75;5.20;;;;;;;;;;143743;566;46020;-54
2021/09/02 13:22:56;;;;;;;7.20;5.07;;;;;;;;;;143740;627;46021;-54
2021/09/02 13:25:24;;;;;;;6.93;4.75;;;;;;;;;;143742;570;46010;-55
2021/09/02 13:27:51;;;;;;;9.38;5.03;;;;;;;;;;143742;604;46020;-54
2021/09/02 13:30:21;;;;;;;8.02;5.12;;;;;;;;;;143743;620;46021;-55
2021/09/02 13:32:48;;;;;;;6.45;5.10;;;;;;;;;;143742;586;46020;-55
2021/09/02 13:35:16;;;;;;;11.27;5.28;;;;;;;;;;143738;582;46020;-54
2021/09/02 13:37:44;;;;;;;7.68;5.00;;;;;;;;;;143737;564;46020;-54
2021/09/02 13:40:15;;;;;;;9.07;5.75;;;;;;;;;;143745;586;46010;-55
2021/09/02 13:42:43;;;;;;;12.02;5.28;;;;;;;;;;143740;655;46020;-55
2021/09/02 13:45:11;;;;;;;12.82;5.20;;;;;;;;;;143741;669;47011;-54
2021/09/02 13:47:38;;;;;;;6.90;5.55;;;;;;;;;;143743;564;46021;-54
2021/09/02 13:50:06;;;;;;;8.20;5.25;;;;;;;;;;143744;588;46020;-55
2021/09/02 13:52:36;;;;;;;6.62;5.03;;;;;;;;;;143743;580;46021;-54
2021/09/02 13:55:08;;;;;;;8.30;5.12;;;;;;;;;;143742;583;46010;-54
2021/09/02 13:57:36;;;;;;;6.43;4.78;;;;;;;;;;143741;637;46020;-54
2021/09/02 14:00:06;;;;;;;7.43;4.90;;;;;;;;;;143743;571;46020;-55
2021/09/02 14:02:33;;;;;;;8.18;4.87;;;;;;;;;;143735;592;46023;-55
2021/09/02 14:05:00;;;;;;;7.00;4.75;;;;;;;;;;143742;583;47010;-54
2021/09/02 14:07:27;;;;;;;6.68;4.78;;;;;;;;;;143743;574;46021;-55
2021/09/02 14:09:54;;;;;;;6.75;4.82;;;;;;;;;;143745;696;46010;-55
2021/09/02 14:12:21;;;;;;;6.78;4.90;;;;;;;;;;143740;601;46020;-54
2021/09/02 14:14:48;;;;;;;7.28;5.07;;;;;;;;;;143742;606;46010;-55
2021/09/02 14:17:15;;;;;;;6.85;4.82;;;;;;;;;;143741;577;46020;-54
2021/09/02 14:19:43;;;;;;;9.02;5.12;;;;;;;;;;143743;692;46020;-55
2021/09/02 14:22:09;;;;;;;8.93;5.20;;;;;;;;;;143742;603;46021;-54
2021/09/02 14:24:36;;;;;;;8.00;4.82;;;;;;;;;;143743;578;46010;-55
2021/09/02 14:27:04;;;;;;;6.07;5.05;;;;;;;;;;143735;569;46020;-55
2021/09/02 14:29:31;;;;;;;10.27;5.50;;;;;;;;;;143742;616;46021;-55
2021/09/02 14:31:58;;;;;;;8.07;4.78;;;;;;;;;;143741;596;46020;-54
2021/09/02 14:34:25;;;;;;;8.13;4.85;;;;;;;;;;143742;569;46010;-55
2021/09/02 14:36:52;;;;;;;5.87;5.07;;;;;;;;;;143741;565;46021;-55
2021/09/02 14:39:19;;;;;;;7.40;5.05;;;;;;;;;;143743;627;46021;-54
2021/09/02 14:41:46;;;;;;;9.10;5.10;;;;;;;;;;143739;586;46020;-55
2021/09/02 14:44:13;;;;;;;9.20;5.12;;;;;;;;;;143742;597;46011;-55
2021/09/02 14:46:40;;;;;;;6.70;5.07;;;;;;;;;;143743;576;46021;-55
2021/09/02 14:49:07;;;;;;;6.37;4.90;;;;;;;;;;143745;573;46020;-54
2021/09/02 14:51:34;;;;;;;8.80;4.90;;;;;;;;;;143738;571;46021;-55